Time;durP1;ratioP1;P1;durP2;ratioP2;P2;SDS_P1;SDS_P2;PMS_P1;PMS_P2;Temp;Humidity;BMP_temperature;BMP_pressure;BME280_temperature;BME280_humidity;BME280_pressure;Samples;Min_cycle;Max_cycle;Signal;HPM_P1;HPM_P2
2021/12/16 00:06:49;;;;;;;19.33;13.15;;;4.50;99.90;;;3.76;100.00;98929.44;5021533;28;20028;-44
2021/12/16 00:09:01;;;;;;;17.33;12.07;;;4.50;99.90;;;3.79;100.00;98934.72;5021563;28;20075;-48
2021/12/16 00:35:46;;;;;;;16.30;11.18;;;4.40;99.90;;;3.60;100.00;98923.09;4954999;28;20110;-81
2021/12/16 00:38:12;;;;;;;15.80;10.65;;;4.40;99.90;;;3.53;100.00;98913.41;4973508;28;20034;-81
2021/12/16 00:40:40;;;;;;;16.17;10.95;;;4.40;99.90;;;3.45;100.00;98899.41;4938777;28;20119;-81
2021/12/16 00:43:33;;;;;;;14.65;11.00;;;4.40;99.90;;;3.53;100.00;98921.25;4935465;28;20027;-81
2021/12/16 00:49:00;;;;;;;17.95;11.82;;;4.40;99.90;;;3.50;100.00;98921.22;4962593;28;20301;-81
2021/12/16 00:54:13;;;;;;;16.85;10.73;;;4.30;99.90;;;3.64;100.00;98924.03;4960487;28;20122;-81
2021/12/16 00:56:44;;;;;;;16.52;11.70;;;4.30;99.90;;;3.57;100.00;98927.38;4972685;28;20035;-81
2021/12/16 00:59:12;;;;;;;15.70;11.40;;;4.40;99.90;;;3.52;100.00;98929.09;4959444;28;20035;-81
2021/12/16 01:01:49;;;;;;;17.58;11.52;;;4.40;99.90;;;3.52;100.00;98929.09;4955420;28;20897;-81
2021/12/16 01:50:11;;;;;;;15.68;11.68;;;4.30;99.90;;;3.50;100.00;98933.38;4961628;28;20069;-81
2021/12/16 01:53:07;;;;;;;17.95;11.82;;;4.30;99.90;;;3.44;100.00;98940.25;4962873;28;20082;-81
2021/12/16 01:55:47;;;;;;;16.15;11.57;;;4.30;99.90;;;3.44;100.00;98939.38;4960902;28;20061;-81
2021/12/16 01:58:19;;;;;;;19.25;11.85;;;4.20;99.90;;;3.45;100.00;98938.53;4965246;28;20091;-81
2021/12/16 02:01:09;;;;;;;16.35;12.18;;;4.30;99.90;;;3.48;100.00;98935.94;4948966;28;20039;-81
2021/12/16 02:03:49;;;;;;;19.58;13.45;;;4.30;99.90;;;3.49;100.00;98945.53;4961516;28;20035;-80
2021/12/16 02:06:41;;;;;;;17.63;12.82;;;4.20;99.90;;;3.41;100.00;98918.44;4932709;28;20515;-81
2021/12/16 02:09:23;;;;;;;18.73;13.43;;;4.30;99.90;;;3.54;100.00;98936.06;4936637;28;20038;-81
2021/12/16 02:12:11;;;;;;;19.57;13.57;;;4.30;99.90;;;3.51;100.00;98933.41;4948577;28;20575;-81
2021/12/16 02:28:38;;;;;;;16.10;11.57;;;4.30;99.90;;;3.58;100.00;98917.00;4960849;28;20130;-81
2021/12/16 02:38:48;;;;;;;16.35;11.38;;;4.40;99.90;;;3.65;100.00;98917.09;4957240;28;20574;-83
2021/12/16 02:41:16;;;;;;;15.75;11.23;;;4.40;99.90;;;3.63;100.00;98915.31;4958456;28;20035;-82
2021/12/16 02:48:44;;;;;;;17.45;11.63;;;4.40;99.90;;;3.57;100.00;98917.84;4957129;28;20129;-82
2021/12/16 02:51:22;;;;;;;14.57;10.80;;;4.40;99.90;;;3.66;100.00;98919.72;4974648;28;20042;-81
2021/12/16 02:53:54;;;;;;;14.95;10.68;;;4.40;99.90;;;3.62;100.00;98918.81;4959591;28;20031;-82
2021/12/16 02:56:20;;;;;;;14.30;10.32;;;4.40;99.90;;;3.68;100.00;98920.63;4970923;28;20027;-81
2021/12/16 02:58:51;;;;;;;18.77;12.45;;;4.40;99.90;;;3.60;100.00;98912.66;4960422;28;20034;-82
2021/12/16 03:01:36;;;;;;;17.40;11.13;;;4.40;99.90;;;3.62;100.00;98913.59;4958189;28;20026;-81
2021/12/16 03:04:08;;;;;;;16.20;11.57;;;4.40;99.90;;;3.54;100.00;98902.16;4974322;28;20027;-82
2021/12/16 03:06:34;;;;;;;16.60;11.80;;;4.40;99.90;;;3.66;100.00;98929.28;4970748;28;20030;-82
2021/12/16 03:09:04;;;;;;;15.75;11.00;;;4.40;99.90;;;3.69;100.00;98931.94;4954089;28;20088;-81
2021/12/16 03:11:52;;;;;;;16.83;11.23;;;4.40;99.90;;;3.71;100.00;98920.66;4964510;28;20061;-82
2021/12/16 03:14:36;;;;;;;18.50;11.63;;;4.40;99.90;;;3.72;100.00;98924.16;4965661;28;20026;-82
2021/12/16 03:20:01;;;;;;;15.02;10.75;;;4.40;99.90;;;3.66;100.00;98924.06;4960296;28;20023;-82
2021/12/16 03:22:57;;;;;;;17.83;12.25;;;4.40;99.90;;;3.53;100.00;98897.78;4944564;28;20109;-82
2021/12/16 03:31:05;;;;;;;17.65;12.23;;;4.40;99.90;;;3.65;100.00;98924.94;4974766;28;20026;-81
2021/12/16 03:38:58;;;;;;;13.88;9.38;;;4.40;99.90;;;3.60;100.00;98925.72;4960630;28;20047;-82
2021/12/16 03:41:25;;;;;;;15.75;10.55;;;4.40;99.90;;;3.70;100.00;98923.28;4974100;28;20028;-81
2021/12/16 03:43:53;;;;;;;15.27;10.48;;;4.40;99.90;;;3.61;100.00;98917.03;4961049;28;20030;-82
2021/12/16 03:46:27;;;;;;;17.13;12.18;;;4.40;99.90;;;3.63;100.00;98930.13;4957732;28;20026;-82
2021/12/16 03:49:18;;;;;;;18.92;12.02;;;4.40;99.90;;;3.58;100.00;98934.38;4975967;28;20030;-82
2021/12/16 03:52:08;;;;;;;16.40;11.07;;;4.40;99.90;;;3.67;100.00;98934.50;4956786;28;20532;-82
2021/12/16 03:54:41;;;;;;;14.50;10.48;;;4.40;99.90;;;3.61;100.00;98918.78;4945302;28;20038;-82
2021/12/16 03:57:11;;;;;;;17.08;11.30;;;4.40;99.90;;;3.69;100.00;98944.97;4967901;28;20049;-82
2021/12/16 03:59:40;;;;;;;16.23;11.32;;;4.40;99.90;;;3.69;100.00;98944.97;4948634;28;20499;-82
2021/12/16 04:02:12;;;;;;;14.18;10.35;;;4.40;99.90;;;3.65;100.00;98933.63;4967883;28;20027;-82
2021/12/16 04:04:40;;;;;;;17.20;11.60;;;4.40;99.90;;;3.68;100.00;98936.28;4934530;28;20030;-81
2021/12/16 04:07:06;;;;;;;14.63;10.68;;;4.50;99.90;;;3.77;100.00;98940.78;4949629;28;20182;-82
2021/12/16 04:09:33;;;;;;;15.88;11.32;;;4.50;99.90;;;3.67;100.00;98931.91;4934033;28;20035;-81
2021/12/16 04:12:08;;;;;;;18.23;11.57;;;4.50;99.90;;;3.65;100.00;98914.50;4968581;28;20030;-82
2021/12/16 04:14:36;;;;;;;15.30;11.63;;;4.50;99.90;;;3.78;100.00;98939.91;4965914;28;20037;-82
2021/12/16 04:17:05;;;;;;;18.13;11.45;;;4.50;99.90;;;3.76;100.00;98939.00;4945698;28;20404;-81
2021/12/16 04:19:33;;;;;;;18.75;12.23;;;4.50;99.90;;;3.79;100.00;98937.31;4949483;28;20590;-82
2021/12/16 04:22:06;;;;;;;18.55;12.48;;;4.50;99.90;;;3.75;100.00;98945.97;4948646;28;20070;-82
2021/12/16 04:24:33;;;;;;;21.30;13.00;;;4.50;99.90;;;3.77;100.00;98946.84;4947865;28;20284;-82
2021/12/16 04:26:59;;;;;;;20.17;12.85;;;4.50;99.90;;;3.78;100.00;98947.72;4947038;28;20153;-81
2021/12/16 04:29:26;;;;;;;19.15;13.43;;;4.50;99.90;;;3.75;100.00;98934.63;4967026;28;20069;-82
2021/12/16 04:31:54;;;;;;;22.90;13.75;;;4.50;99.90;;;3.76;100.00;98952.06;4947543;28;20058;-81
2021/12/16 04:34:21;;;;;;;22.10;14.13;;;4.50;99.90;;;3.77;100.00;98954.69;4951962;28;20492;-82
2021/12/16 04:36:47;;;;;;;20.13;13.02;;;4.50;99.90;;;3.75;100.00;98937.22;4964522;28;20078;-82
2021/12/16 04:39:20;;;;;;;20.83;13.25;;;4.50;99.90;;;3.74;100.00;98935.50;4950619;28;20061;-82
2021/12/16 04:41:46;;;;;;;20.00;12.93;;;4.50;99.90;;;3.77;100.00;98943.38;4954610;28;20011;-82
2021/12/16 04:44:15;;;;;;;17.13;11.45;;;4.50;99.90;;;3.73;100.00;98921.56;4995130;28;20042;-82
2021/12/16 04:46:42;;;;;;;21.35;14.05;;;4.50;99.90;;;3.77;100.00;98946.00;4973240;28;20031;-82
2021/12/16 04:49:10;;;;;;;20.42;13.45;;;4.50;99.90;;;3.68;100.00;98923.25;4944738;28;20175;-81
2021/12/16 04:51:39;;;;;;;20.50;13.43;;;4.50;99.90;;;3.78;100.00;98939.91;4956181;28;20251;-82
2021/12/16 04:54:08;;;;;;;20.25;12.50;;;4.50;99.90;;;3.81;100.00;98940.81;4955666;28;20039;-82
2021/12/16 04:56:35;;;;;;;21.98;13.48;;;4.60;99.90;;;3.86;100.00;98934.78;4955373;28;20030;-81
2021/12/16 04:59:08;;;;;;;20.58;13.65;;;4.60;99.90;;;3.89;100.00;98937.44;4957151;28;20031;-82
2021/12/16 05:01:35;;;;;;;;;;;4.60;99.90;;;3.79;100.00;98939.06;4957880;28;20037;-81
2021/12/16 05:04:01;;;;;;;22.27;14.52;;;4.60;99.90;;;3.79;100.00;98946.88;4974187;28;20088;-81
2021/12/16 05:06:26;;;;;;;27.40;15.25;;;4.60;99.90;;;3.69;100.00;98937.16;4959177;28;20054;-82
2021/12/16 05:08:52;;;;;;;27.30;15.77;;;4.50;99.90;;;3.74;100.00;98945.94;4973632;28;20353;-82
2021/12/16 05:11:18;;;;;;;24.85;15.68;;;4.50;99.90;;;3.66;100.00;98945.81;4973773;28;20050;-82
2021/12/16 05:13:48;;;;;;;25.40;16.13;;;4.50;99.90;;;3.70;100.00;98944.16;4967598;28;20027;-81
2021/12/16 05:16:14;;;;;;;28.08;16.60;;;4.50;99.90;;;3.68;100.00;98936.28;4954208;28;20038;-82
2021/12/16 05:18:41;;;;;;;26.80;16.23;;;4.50;99.90;;;3.76;100.00;98947.69;4956312;28;20027;-82
2021/12/16 05:21:25;;;;;;;28.42;16.85;;;4.50;99.90;;;3.59;100.00;98937.00;4957519;28;20408;-82
2021/12/16 05:26:35;;;;;;;23.70;14.40;;;4.50;99.90;;;3.66;100.00;98960.56;4962426;28;20046;-82
2021/12/16 05:29:01;;;;;;;22.05;12.60;;;4.50;99.90;;;3.70;100.00;98988.50;4955498;28;20038;-82
2021/12/16 05:31:28;;;;;;;22.17;13.20;;;4.50;99.90;;;3.66;100.00;98971.00;4973716;28;20106;-82
2021/12/16 05:33:56;;;;;;;19.77;12.52;;;4.50;99.90;;;3.72;100.00;98977.22;4958833;28;20022;-82
2021/12/16 05:36:22;;;;;;;21.92;13.73;;;4.50;99.90;;;3.64;100.00;98968.38;4971178;28;20654;-81
2021/12/16 05:38:48;;;;;;;21.27;13.60;;;4.50;99.90;;;3.67;100.00;98994.53;4967753;28;20095;-81
2021/12/16 05:41:21;;;;;;;21.48;14.00;;;4.40;99.90;;;3.67;100.00;98983.22;4935643;28;20031;-82
2021/12/16 05:43:48;;;;;;;19.05;12.63;;;4.50;99.90;;;3.71;100.00;98993.72;4958760;28;20433;-81
2021/12/16 05:46:17;;;;;;;22.45;13.23;;;4.50;99.90;;;3.78;100.00;99000.78;4954758;28;20030;-81
2021/12/16 05:48:47;;;;;;;22.67;13.82;;;4.50;99.90;;;3.63;100.00;98991.00;4953200;28;20651;-82
2021/12/16 05:51:21;;;;;;;20.95;12.75;;;4.50;99.90;;;3.79;100.00;99002.56;4951279;28;20438;-82
2021/12/16 05:53:48;;;;;;;21.42;13.43;;;4.50;99.90;;;3.80;100.00;99003.44;4954233;28;20441;-80
2021/12/16 05:56:14;;;;;;;20.00;12.48;;;4.50;99.90;;;3.76;100.00;98999.03;4954260;28;20045;-82
2021/12/16 05:58:40;;;;;;;21.30;14.15;;;4.60;99.90;;;3.66;100.00;99012.75;4938809;28;20030;-82
2021/12/16 06:01:12;;;;;;;18.48;12.40;;;4.50;99.90;;;3.64;100.00;98997.09;4977478;28;20022;-81
2021/12/16 06:03:39;;;;;;;;;;;4.50;99.90;;;3.76;100.00;99012.06;4943879;28;20023;-82
2021/12/16 06:06:05;;;;;;;18.50;11.88;;;4.50;99.90;;;3.71;100.00;99013.72;4958236;28;19989;-82
2021/12/16 06:08:32;;;;;;;18.85;11.98;;;4.50;99.90;;;3.73;100.00;99020.75;4950378;28;20035;-82
2021/12/16 06:13:39;;;;;;;16.02;10.88;;;4.60;99.90;;;3.87;100.00;99023.56;4985453;23;20132;-45
2021/12/16 06:27:03;;;;;;;16.50;10.80;;;4.70;99.90;;;3.95;100.00;99021.94;5031244;28;20051;-43
2021/12/16 06:29:29;;;;;;;18.90;11.50;;;4.70;99.90;;;3.96;100.00;99026.31;5020933;23;20080;-49
2021/12/16 06:31:56;;;;;;;18.60;11.57;;;4.70;99.90;;;3.99;100.00;99028.97;4995024;28;20384;-47
2021/12/16 06:34:22;;;;;;;17.92;11.75;;;4.70;99.90;;;4.00;100.00;99019.41;5002955;28;20033;-49
2021/12/16 06:36:48;;;;;;;18.95;11.30;;;4.70;99.90;;;4.03;100.00;99024.66;4996805;28;20454;-46
2021/12/16 06:39:14;;;;;;;19.30;11.82;;;4.70;99.90;;;4.06;100.00;99027.34;4986814;28;20568;-47
2021/12/16 06:41:40;;;;;;;16.40;11.45;;;4.80;99.90;;;4.05;100.00;99016.88;4960684;28;20026;-47
2021/12/16 06:44:17;;;;;;;17.83;11.73;;;4.70;99.90;;;4.04;100.00;99013.38;4983194;28;20116;-43
2021/12/16 06:46:45;;;;;;;19.10;11.88;;;4.70;99.90;;;4.04;100.00;99015.09;4974706;28;20034;-45
2021/12/16 06:49:14;;;;;;;19.95;12.23;;;4.80;99.90;;;4.00;100.00;99009.84;4983293;28;20361;-48
2021/12/16 06:51:50;;;;;;;19.70;12.60;;;4.70;99.90;;;4.04;100.00;99021.22;4977882;28;20025;-46
2021/12/16 06:54:25;;;;;;;19.10;12.00;;;4.80;99.90;;;4.08;100.00;99025.63;4984123;28;20053;-46
2021/12/16 06:57:03;;;;;;;19.98;12.02;;;4.80;99.90;;;4.11;100.00;99019.56;4980247;28;20038;-46
2021/12/16 06:59:37;;;;;;;22.77;12.80;;;4.80;99.90;;;4.15;100.00;99026.59;4976991;28;20476;-47
2021/12/16 07:02:18;;;;;;;19.80;12.18;;;4.80;99.90;;;4.15;100.00;99034.44;4976327;28;20507;-48
2021/12/16 07:04:45;;;;;;;19.73;12.43;;;4.80;99.90;;;4.17;100.00;99041.44;4977854;28;20780;-45
2021/12/16 07:07:14;;;;;;;20.30;12.40;;;4.90;99.90;;;4.17;100.00;99048.41;4975385;28;20042;-48
2021/12/16 07:09:41;;;;;;;20.92;13.35;;;4.90;99.90;;;4.18;100.00;99044.91;4975606;28;20534;-43
2021/12/16 07:12:10;;;;;;;20.95;13.10;;;4.90;99.90;;;4.17;100.00;99043.16;4980059;28;20030;-46
2021/12/16 07:14:39;;;;;;;19.40;12.73;;;4.90;99.90;;;4.17;100.00;99059.72;4978644;28;20023;-44
2021/12/16 07:17:16;;;;;;;25.30;13.32;;;4.90;99.90;;;4.19;100.00;99057.13;4957859;28;20080;-46
2021/12/16 07:19:44;;;;;;;20.65;13.40;;;4.90;99.90;;;4.18;100.00;99055.34;4980488;28;20066;-49
2021/12/16 07:22:11;;;;;;;21.38;12.60;;;4.90;99.90;;;4.04;100.00;99028.16;4981955;28;20050;-48
2021/12/16 07:24:38;;;;;;;20.75;12.65;;;4.90;99.90;;;4.17;100.00;99048.41;4982032;28;20555;-48
2021/12/16 07:27:06;;;;;;;20.10;12.50;;;4.90;99.90;;;4.19;100.00;99049.28;4980060;28;20034;-46
2021/12/16 07:29:32;;;;;;;22.77;13.63;;;4.90;99.90;;;4.20;100.00;99053.66;4983616;28;20484;-39
2021/12/16 07:31:59;;;;;;;21.75;13.38;;;4.90;99.90;;;4.20;100.00;99048.44;4981791;28;20950;-48
2021/12/16 07:34:26;;;;;;;19.67;13.25;;;4.90;99.90;;;4.25;100.00;99053.72;4984682;28;20038;-44
2021/12/16 07:36:52;;;;;;;21.08;13.07;;;4.90;99.90;;;4.25;100.00;99056.34;4980221;28;20049;-48
2021/12/16 07:39:28;;;;;;;23.00;13.35;;;4.90;99.90;;;4.27;100.00;99063.34;4980243;28;20073;-46
2021/12/16 07:41:55;;;;;;;21.65;13.00;;;4.90;99.90;;;4.30;100.00;99063.38;4982739;28;20029;-44
2021/12/16 07:44:21;;;;;;;21.38;12.60;;;5.00;99.90;;;4.33;100.00;99071.28;4991038;28;20087;-46
2021/12/16 07:47:01;;;;;;;22.63;13.43;;;5.00;99.90;;;4.33;100.00;99060.81;4983359;28;20038;-45
2021/12/16 07:49:31;;;;;;;22.58;12.75;;;5.00;99.90;;;4.30;100.00;99071.22;4989082;28;20439;-48
2021/12/16 07:52:00;;;;;;;23.27;13.18;;;5.00;99.90;;;4.30;100.00;99066.00;4986124;28;20510;-47
2021/12/16 07:54:27;;;;;;;22.55;12.65;;;5.00;99.90;;;4.33;100.00;99073.00;4984605;28;20057;-44
2021/12/16 07:56:55;;;;;;;23.98;13.50;;;5.00;99.90;;;4.36;100.00;99078.25;4983720;28;20037;-43
2021/12/16 07:59:24;;;;;;;22.58;12.48;;;5.00;99.90;;;4.38;100.00;99077.44;4989215;28;20042;-44
2021/12/16 08:01:50;;;;;;;19.08;11.70;;;5.10;99.90;;;4.43;100.00;99084.47;4985232;28;20645;-48
2021/12/16 08:04:27;;;;;;;20.80;12.93;;;5.10;99.90;;;4.45;100.00;99078.41;4979529;28;20034;-48
2021/12/16 08:06:58;;;;;;;20.25;12.15;;;5.20;99.90;;;4.48;100.00;99082.78;4981839;28;20039;-47
2021/12/16 08:09:24;;;;;;;19.85;11.45;;;5.20;99.90;;;4.52;100.00;99081.97;4978233;28;20419;-47
2021/12/16 08:11:51;;;;;;;18.48;12.13;;;5.20;99.90;;;4.43;100.00;99058.34;4980713;28;20035;-45
2021/12/16 08:14:17;;;;;;;19.73;11.38;;;5.20;99.90;;;4.59;100.00;99078.59;4980504;28;20037;-43
2021/12/16 08:16:44;;;;;;;20.67;12.25;;;5.20;99.90;;;4.58;100.00;99092.53;4985561;28;20035;-48
2021/12/16 08:19:10;;;;;;;21.95;12.18;;;5.30;99.90;;;4.50;100.00;99081.06;4990068;28;20026;-47
2021/12/16 08:21:38;;;;;;;20.58;12.30;;;5.30;99.90;;;4.66;100.00;99098.72;4983340;28;20034;-49
2021/12/16 08:24:10;;;;;;;22.08;12.75;;;5.30;99.90;;;4.53;100.00;99087.22;4986762;28;20446;-47
2021/12/16 08:26:37;;;;;;;24.38;13.00;;;5.30;99.90;;;4.68;100.00;99109.19;4981747;28;20030;-46
2021/12/16 08:29:04;;;;;;;23.90;13.52;;;5.40;99.90;;;4.68;100.00;99104.84;4986185;28;20038;-48
2021/12/16 08:31:30;;;;;;;19.50;11.55;;;5.40;99.90;;;4.68;100.00;99110.06;4980133;28;20038;-48
2021/12/16 08:33:57;;;;;;;19.05;11.82;;;5.40;99.90;;;4.73;100.00;99115.38;4986357;28;20034;-39
2021/12/16 08:36:24;;;;;;;17.35;10.23;;;5.40;99.90;;;4.76;100.00;99105.84;4982240;28;20121;-46
2021/12/16 08:38:50;;;;;;;18.33;10.43;;;5.40;99.90;;;4.81;100.00;99107.63;4959510;28;20034;-46
2021/12/16 08:41:24;;;;;;;21.05;12.73;;;5.50;99.90;;;4.91;100.00;99118.22;4980961;28;20100;-45
2021/12/16 08:43:51;;;;;;;20.23;11.45;;;5.50;99.90;;;4.90;100.00;99118.22;4985805;28;21905;-47
2021/12/16 08:46:23;;;;;;;17.58;10.40;;;5.50;99.90;;;4.93;100.00;99113.91;4980871;28;20030;-47
2021/12/16 08:48:49;;;;;;;21.00;12.32;;;5.60;99.90;;;4.87;100.00;99107.72;4984042;28;20412;-46
2021/12/16 08:51:21;;;;;;;20.48;11.93;;;5.60;99.90;;;4.85;100.00;99112.94;4981630;28;20507;-48
2021/12/16 08:53:49;;;;;;;17.85;10.98;;;5.60;99.90;;;4.97;100.00;99118.34;4983835;28;20128;-43
2021/12/16 08:56:15;;;;;;;19.95;10.80;;;5.60;99.90;;;5.01;100.00;99119.25;4983924;28;20048;-45
2021/12/16 08:58:41;;;;;;;22.50;13.02;;;5.70;99.90;;;5.00;100.00;99129.69;4981381;28;20034;-46
2021/12/16 09:01:17;;;;;;;19.50;11.15;;;5.70;99.90;;;5.08;100.00;99133.25;4982597;28;20030;-49
2021/12/16 09:03:43;;;;;;;18.42;10.95;;;5.70;99.90;;;5.17;100.00;99130.78;4982350;28;20030;-46
2021/12/16 09:06:09;;;;;;;19.55;11.40;;;5.80;99.90;;;5.23;100.00;99138.69;4979589;28;20042;-47
2021/12/16 09:08:36;;;;;;;17.13;10.70;;;5.90;99.90;;;5.27;100.00;99140.47;4967564;28;20705;-46
2021/12/16 09:11:05;;;;;;;17.25;10.55;;;5.90;99.90;;;5.33;100.00;99137.09;4977717;28;20548;-47
2021/12/16 09:13:32;;;;;;;15.60;10.05;;;6.00;99.90;;;5.39;100.00;99134.53;4982492;28;20034;-43
2021/12/16 09:16:03;;;;;;;17.33;11.13;;;6.00;99.90;;;5.38;100.00;99130.16;4982701;28;20035;-45
2021/12/16 09:18:32;;;;;;;19.10;11.10;;;6.00;99.90;;;5.42;100.00;99131.97;4986519;28;20452;-49
2021/12/16 09:21:02;;;;;;;17.67;11.20;;;6.10;99.90;;;5.49;100.00;99148.59;4983094;28;20053;-45
2021/12/16 09:23:28;;;;;;;14.93;9.20;;;6.10;99.90;;;5.56;100.00;99150.41;4984092;28;20724;-46
2021/12/16 09:25:54;;;;;;;17.30;9.90;;;6.20;99.90;;;5.64;100.00;99146.16;4980718;28;20117;-45
2021/12/16 09:28:22;;;;;;;15.60;9.50;;;6.30;99.90;;;5.66;100.00;99154.91;4982263;28;20081;-48
2021/12/16 09:30:49;;;;;;;17.77;9.98;;;6.30;99.90;;;5.70;100.00;99155.81;4967456;28;20034;-44
2021/12/16 09:33:18;;;;;;;16.70;10.32;;;6.30;99.90;;;5.77;100.00;99155.00;4984535;28;20033;-46
2021/12/16 09:35:50;;;;;;;16.35;10.38;;;6.40;99.90;;;5.80;100.00;99155.03;4982006;28;20403;-46
2021/12/16 09:38:17;;;;;;;16.75;10.93;;;6.40;99.90;;;5.78;100.00;99156.78;4979712;28;20058;-46
2021/12/16 09:40:50;;;;;;;19.30;10.15;;;6.40;99.90;;;5.83;100.00;99159.44;4982009;28;20042;-46
2021/12/16 09:43:37;;;;;;;20.85;11.05;;;6.40;99.90;;;5.75;100.00;99138.41;4979975;28;20400;-42
2021/12/16 09:46:10;;;;;;;20.63;11.75;;;6.50;99.90;;;5.96;100.00;99160.44;4983941;28;20034;-44
2021/12/16 09:48:36;;;;;;;21.58;11.88;;;6.60;99.90;;;5.98;100.00;99166.63;4981088;28;20244;-47
2021/12/16 09:51:07;;;;;;;18.48;12.25;;;6.60;99.90;;;5.92;100.00;99168.28;4982726;28;20043;-45
2021/12/16 09:53:36;;;;;;;19.30;11.80;;;6.60;99.90;;;5.97;100.00;99165.72;4981798;28;20125;-44
2021/12/16 09:56:04;;;;;;;18.73;11.52;;;6.60;99.90;;;6.03;100.00;99167.50;4983990;28;20026;-43
2021/12/16 09:58:42;;;;;;;23.15;12.15;;;6.70;99.90;;;6.10;100.00;99174.56;4983136;28;20033;-47
2021/12/16 10:01:10;;;;;;;22.60;12.20;;;6.70;99.90;;;6.11;100.00;99168.47;4983902;28;20497;-46
2021/12/16 10:03:41;;;;;;;21.58;12.30;;;6.80;99.90;;;6.15;100.00;99159.75;4982433;28;20526;-45
2021/12/16 10:06:07;;;;;;;22.55;13.13;;;6.80;99.90;;;6.16;100.00;99172.00;4981371;28;20034;-47
2021/12/16 10:08:33;;;;;;;22.13;13.15;;;6.80;99.90;;;6.17;100.00;99163.28;4981974;28;20037;-45
2021/12/16 10:10:59;;;;;;;21.70;12.90;;;6.80;99.90;;;6.15;100.00;99162.38;4979801;28;20029;-42
2021/12/16 10:13:38;;;;;;;22.38;12.38;;;6.80;99.90;;;6.11;100.00;99158.00;4984352;28;20036;-42
2021/12/16 10:18:36;;;;;;;24.80;14.20;;;6.80;99.90;;;6.09;100.00;99167.59;4984564;28;20713;-45
2021/12/16 10:21:07;;;;;;;24.38;12.85;;;6.80;99.90;;;6.14;100.00;99159.75;4982428;28;20042;-43
2021/12/16 10:23:38;;;;;;;19.08;11.82;;;6.70;99.90;;;6.15;100.00;99159.75;4982835;28;20038;-46
2021/12/16 10:26:18;;;;;;;20.33;12.80;;;6.80;99.90;;;6.18;100.00;99165.03;4983008;28;20038;-46
2021/12/16 10:28:48;;;;;;;19.20;12.35;;;6.80;99.90;;;6.26;100.00;99163.38;4982192;28;20035;-46
2021/12/16 10:31:26;;;;;;;22.65;12.65;;;6.80;99.90;;;6.30;100.00;99152.06;4982145;28;20033;-45
2021/12/16 10:34:03;;;;;;;19.63;11.32;;;6.90;99.90;;;6.40;100.00;99154.75;4982527;28;20037;-45
2021/12/16 10:36:37;;;;;;;21.15;12.52;;;7.00;99.90;;;6.48;100.00;99151.31;4980348;28;20089;-45
2021/12/16 10:39:22;;;;;;;21.58;12.40;;;7.10;99.90;;;6.43;100.00;99160.00;4980921;28;20105;-46
2021/12/16 10:41:54;;;;;;;21.50;12.88;;;7.10;99.90;;;6.40;100.00;99158.22;4983866;28;20030;-41
2021/12/16 10:44:30;;;;;;;22.85;13.20;;;7.00;99.90;;;6.34;100.00;99166.06;4981471;28;20030;-42
2021/12/16 10:47:09;;;;;;;22.33;12.45;;;7.00;99.90;;;6.36;100.00;99164.31;4978319;28;20034;-47
2021/12/16 10:49:52;;;;;;;24.33;13.52;;;7.00;99.90;;;6.33;100.00;99163.41;4974621;28;20041;-46
2021/12/16 10:52:31;;;;;;;21.38;12.77;;;6.90;99.90;;;6.30;100.00;99165.16;4978240;28;20050;-45
2021/12/16 10:54:59;;;;;;;23.38;13.45;;;6.90;99.90;;;6.27;100.00;99165.13;4980527;28;20583;-43
2021/12/16 10:57:31;;;;;;;21.20;13.23;;;6.90;99.90;;;6.22;100.00;99158.97;4979065;28;20120;-42
2021/12/16 11:00:06;;;;;;;22.90;12.70;;;6.90;99.90;;;6.22;100.00;99169.44;4980520;28;20123;-42
2021/12/16 11:02:36;;;;;;;20.23;12.55;;;6.80;99.90;;;6.21;100.00;99164.19;4978377;28;20030;-47
2021/12/16 11:05:22;;;;;;;22.42;13.25;;;6.80;99.90;;;6.18;100.00;99156.31;4978684;28;20022;-46
2021/12/16 11:07:51;;;;;;;23.25;13.75;;;6.80;99.90;;;6.19;100.00;99163.28;4980422;28;20039;-47
2021/12/16 11:10:31;;;;;;;26.02;13.52;;;6.80;99.90;;;6.13;100.00;99166.75;4977889;28;20037;-41
2021/12/16 11:13:04;;;;;;;23.20;13.20;;;6.80;99.90;;;6.12;100.00;99162.38;4978297;28;20061;-45
2021/12/16 11:15:31;;;;;;;25.45;13.90;;;6.70;99.90;;;6.07;100.00;99169.31;4977129;28;20039;-45
2021/12/16 11:17:59;;;;;;;24.38;13.68;;;6.70;99.90;;;6.07;100.00;99170.19;4979418;28;20313;-45
2021/12/16 11:20:39;;;;;;;20.92;13.25;;;6.70;99.90;;;6.08;100.00;99171.06;4976521;28;20043;-45
2021/12/16 11:23:13;;;;;;;22.92;12.60;;;6.70;99.90;;;6.11;100.00;99171.09;4980102;28;20059;-44
2021/12/16 11:25:47;;;;;;;22.67;12.55;;;6.70;99.90;;;6.10;100.00;99161.47;4978872;28;20038;-47
2021/12/16 11:28:28;;;;;;;22.77;13.88;;;6.70;99.90;;;6.15;100.00;99172.88;4979241;28;20129;-48
2021/12/16 11:31:00;;;;;;;29.05;12.77;;;6.80;99.90;;;6.14;100.00;99165.88;4979796;28;20030;-42
2021/12/16 11:33:34;;;;;;;24.23;13.38;;;6.80;99.90;;;6.16;100.00;99158.91;4978536;28;20112;-47
2021/12/16 11:36:20;;;;;;;22.63;13.32;;;6.80;99.90;;;6.24;100.00;99167.69;4979779;28;20037;-44
2021/12/16 11:38:59;;;;;;;25.40;13.10;;;6.90;99.90;;;6.33;100.00;99166.91;4979705;28;20097;-42
2021/12/16 11:41:31;;;;;;;21.08;12.95;;;7.00;99.90;;;6.39;100.00;99169.59;4980933;28;20165;-48
2021/12/16 11:44:18;;;;;;;25.95;13.20;;;7.00;99.90;;;6.34;100.00;99179.16;4981789;28;20110;-47
2021/12/16 11:47:05;;;;;;;21.45;12.68;;;7.00;99.90;;;6.36;100.00;99174.81;4978908;28;20034;-47
2021/12/16 11:49:32;;;;;;;21.77;12.85;;;7.00;99.90;;;6.41;100.00;99172.25;4976522;28;20030;-40
2021/12/16 11:52:13;;;;;;;24.70;12.85;;;7.00;99.90;;;6.43;100.00;99176.59;4977810;28;20065;-47
2021/12/16 11:54:46;;;;;;;25.35;14.43;;;7.10;99.90;;;6.47;100.00;99167.03;4975711;28;20030;-43
2021/12/16 11:57:35;;;;;;;;;;;7.10;99.90;;;6.48;100.00;99167.03;4975859;28;20609;-46
2021/12/16 12:00:28;;;;;;;21.05;11.82;;;7.20;99.90;;;6.56;100.00;99169.72;4976960;28;19922;-47
2021/12/16 12:03:00;;;;;;;21.05;12.93;;;7.20;99.90;;;6.63;100.00;99163.66;4964410;28;20036;-46
2021/12/16 12:05:37;;;;;;;19.42;11.63;;;7.20;99.90;;;6.63;100.00;99160.16;4976723;28;20419;-44
2021/12/16 12:08:26;;;;;;;20.00;12.48;;;7.30;99.90;;;6.62;100.00;99164.53;4981317;28;20073;-41
2021/12/16 12:11:12;;;;;;;19.20;11.25;;;7.30;99.90;;;6.71;100.00;99157.56;4979834;28;20112;-45
2021/12/16 12:13:43;;;;;;;21.17;12.70;;;7.30;99.90;;;6.62;100.00;99159.28;4981549;28;20026;-41
2021/12/16 12:16:16;;;;;;;21.08;11.90;;;7.30;99.90;;;6.73;100.00;99141.00;4981536;28;20361;-46
2021/12/16 12:19:02;;;;;;;19.25;12.15;;;7.40;99.90;;;6.82;100.00;99145.41;4982154;28;20089;-44
2021/12/16 12:21:44;;;;;;;21.98;12.27;;;7.40;99.90;;;6.94;100.00;99142.84;4977505;28;20084;-45
2021/12/16 12:24:17;;;;;;;;;;;7.50;99.90;;;7.08;100.00;99145.56;4979549;28;20045;-41
2021/12/16 12:26:56;;;;;;;17.65;11.10;;;7.70;99.90;;;7.17;100.00;99147.34;4960476;28;20368;-44
2021/12/16 12:29:48;;;;;;;21.08;12.52;;;7.80;99.90;;;7.22;100.00;99132.50;5003622;23;20050;-46
2021/12/16 12:32:32;;;;;;;19.55;11.90;;;7.80;99.90;;;7.18;100.00;99139.50;4995507;28;20132;-42
2021/12/16 12:35:02;;;;;;;21.52;12.18;;;7.80;99.90;;;7.22;100.00;99135.13;5000471;28;20029;-47
2021/12/16 12:37:31;;;;;;;19.98;12.02;;;7.80;99.90;;;7.23;100.00;99129.91;4998690;28;20040;-46
2021/12/16 12:40:37;;;;;;;17.23;10.73;;;7.80;99.90;;;7.12;97.72;99128.94;4999252;28;20108;-46
2021/12/16 12:43:07;;;;;;;19.50;11.45;;;7.80;99.90;;;6.97;98.30;99100.03;4984239;28;20574;-46
2021/12/16 12:45:38;;;;;;;19.45;11.50;;;7.80;99.90;;;7.12;99.00;99131.56;4999298;28;20032;-49
2021/12/16 12:48:11;;;;;;;17.45;11.00;;;7.70;99.90;;;7.04;98.78;99097.44;5000341;28;20034;-44
2021/12/16 12:50:40;;;;;;;18.42;10.65;;;7.80;99.90;;;7.26;98.63;99119.38;4984202;28;20034;-45
2021/12/16 12:53:18;;;;;;;16.88;10.35;;;7.80;99.90;;;7.34;98.98;99114.19;5000214;28;20120;-43